This is the latest recevied weather packets stored in our database for station/object KK7MLS-13. If no packets are shown the sender has not sent any weather packets the latest 1 day(s).
| Time | Temp. | Humidity | Pressure | Rain* | Wind** | Luminosity | Snow |
|---|---|---|---|---|---|---|---|
| 1778101389 | 19.44° C | 66% | 1021.2 hPa | 0 mm | - | 210 W/m² | - |
| 1778101086 | 19.44° C | 65% | 1020.9 hPa | 0 mm | - | 188 W/m² | - |
| 1778099874 | 18.89° C | 69% | 1020.9 hPa | 0 mm | - | 531 W/m² | - |
| 1778099268 | 18.33° C | 70% | 1021 hPa | 0 mm | - | 271 W/m² | - |
| 1778096842 | 17.78° C | 71% | 1021.4 hPa | 0 mm | - | 224 W/m² | - |
| 1778095326 | 17.78° C | 71% | 1021.5 hPa | 0 mm | - | 149 W/m² | - |
| 1778094411 | 17.22° C | 73% | 1021.2 hPa | 0 mm | - | 250 W/m² | - |
| 1778093198 | 17.22° C | 72% | 1021.3 hPa | 0 mm | - | 182 W/m² | - |
| 1778092895 | 17.22° C | 73% | 1021.2 hPa | 0 mm | - | 187 W/m² | - |
| 1778091682 | 16.67° C | 74% | 1021.5 hPa | 0 mm | - | 192 W/m² | - |
| 1778091380 | 16.67° C | 75% | 1021.3 hPa | 0 mm | - | 244 W/m² | - |
| 1778091077 | 16.67° C | 74% | 1021.2 hPa | 0 mm | - | 185 W/m² | - |
| 1778088652 | 15° C | 79% | 1021 hPa | 0 mm | - | 95 W/m² | - |
| 1778087743 | 15° C | 81% | 1021.1 hPa | 0 mm | - | 86 W/m² | - |
| 1778087138 | 14.44° C | 82% | 1021.1 hPa | 0 mm | - | 86 W/m² | - |
| 1778085618 | 14.44° C | 83% | 1021 hPa | 0 mm | - | 57 W/m² | - |
| 1778085314 | 13.89° C | 83% | 1021 hPa | 0 mm | - | 59 W/m² | - |
| 1778083798 | 13.89° C | 83% | 1020.9 hPa | 0 mm | - | 58 W/m² | - |
| 1778079960 | 13.89° C | 84% | 1021 hPa | 0 mm | - | 21 W/m² | - |
| 1778079657 | 13.89° C | 84% | 1021 hPa | 0 mm | - | 23 W/m² | - |
| 1778079354 | 13.89° C | 85% | 1021.1 hPa | 0 mm | - | 21 W/m² | - |
| 1778078143 | 13.89° C | 83% | 1020.8 hPa | 0 mm | - | 19 W/m² | - |
| 1778077237 | 13.89° C | 84% | 1020.4 hPa | 0 mm | - | 33 W/m² | - |
| 1778076027 | 13.33° C | 85% | 1020 hPa | 0 mm | - | 32 W/m² | - |
| 1778074510 | 13.33° C | 85% | 1019.9 hPa | 0 mm | - | 16 W/m² | - |
* Rain latest hour (hover to see other rain measurements)
** Current wind speed in m/s (hover to see current wind gust speed)